Time;durP1;ratioP1;P1;durP2;ratioP2;P2;SDS_P1;SDS_P2;PMS_P1;PMS_P2;Temp;Humidity;BMP_temperature;BMP_pressure;BME280_temperature;BME280_humidity;BME280_pressure;Samples;Min_cycle;Max_cycle;Signal;HPM_P1;HPM_P2
2022/07/20 00:02:15;;;;;;;7.90;5.20;;;16.90;99.90;;;;;;5017403;28;20034;-69
2022/07/20 00:04:41;;;;;;;5.70;4.43;;;16.80;99.90;;;;;;5013676;28;20032;-69
2022/07/20 00:07:06;;;;;;;7.07;4.55;;;16.70;99.90;;;;;;5025285;28;20490;-69
2022/07/20 00:12:16;;;;;;;;;;;16.60;99.90;;;;;;5033689;28;20040;-69
2022/07/20 00:14:41;;;;;;;6.70;5.20;;;16.60;99.90;;;;;;5033484;28;20272;-69
2022/07/20 00:17:07;;;;;;;9.18;5.05;;;16.50;99.90;;;;;;5033447;28;20028;-68
2022/07/20 00:19:33;;;;;;;7.65;5.22;;;16.40;99.90;;;;;;5033707;28;20393;-69
2022/07/20 00:21:58;;;;;;;7.75;5.07;;;16.40;99.90;;;;;;5033558;28;20061;-69
2022/07/20 00:24:24;;;;;;;7.60;5.50;;;16.40;99.90;;;;;;5033407;28;20032;-69
2022/07/20 00:26:49;;;;;;;7.90;5.07;;;16.30;99.90;;;;;;5033282;28;20068;-69
2022/07/20 00:29:15;;;;;;;10.68;6.03;;;16.20;99.90;;;;;;5033224;28;20072;-69
2022/07/20 00:31:41;;;;;;;8.90;5.30;;;16.20;99.90;;;;;;5033119;28;20493;-69
2022/07/20 00:34:06;;;;;;;8.88;5.95;;;16.10;99.90;;;;;;5033316;28;20025;-69
2022/07/20 00:36:32;;;;;;;6.88;5.50;;;16.00;99.90;;;;;;5033028;28;20030;-69
2022/07/20 00:38:57;;;;;;;8.52;5.72;;;16.10;99.90;;;;;;5033503;28;20029;-69
2022/07/20 00:41:23;;;;;;;10.48;5.50;;;16.10;99.90;;;;;;5033049;28;20030;-69
2022/07/20 00:44:09;;;;;;;8.63;5.63;;;16.00;99.90;;;;;;5033189;28;20030;-69
2022/07/20 00:46:38;;;;;;;7.22;5.07;;;15.90;99.90;;;;;;5033060;28;20025;-69
2022/07/20 00:49:05;;;;;;;8.10;5.72;;;15.90;99.90;;;;;;5033006;28;20387;-69
2022/07/20 00:51:31;;;;;;;7.82;5.55;;;15.90;99.90;;;;;;5033362;28;20025;-69
2022/07/20 00:53:57;;;;;;;8.98;5.90;;;15.80;99.90;;;;;;5032873;28;20493;-69
2022/07/20 00:56:24;;;;;;;10.80;5.78;;;15.70;99.90;;;;;;5032528;28;20029;-69
2022/07/20 00:58:50;;;;;;;7.93;5.80;;;15.70;99.90;;;;;;5032959;28;20045;-69
2022/07/20 01:01:16;;;;;;;7.22;5.45;;;15.60;99.90;;;;;;5032876;28;20477;-69
2022/07/20 01:03:42;;;;;;;9.95;5.38;;;15.70;99.90;;;;;;5032909;28;20097;-69
2022/07/20 01:06:08;;;;;;;11.77;6.18;;;15.50;99.90;;;;;;5032951;28;20041;-69
2022/07/20 01:08:34;;;;;;;9.30;5.47;;;15.50;99.90;;;;;;5033009;28;20465;-69
2022/07/20 01:13:27;;;;;;;9.18;5.65;;;15.40;99.90;;;;;;4992355;28;20078;-69
2022/07/20 01:15:53;;;;;;;8.60;6.05;;;15.40;99.90;;;;;;4977997;28;20026;-69
2022/07/20 01:18:19;;;;;;;10.50;5.70;;;15.40;99.90;;;;;;4997048;28;20026;-69
2022/07/20 01:20:47;;;;;;;8.75;5.45;;;15.40;99.90;;;;;;4997045;28;20038;-69
2022/07/20 01:23:17;;;;;;;12.18;6.32;;;15.30;99.90;;;;;;4996870;28;20076;-68
2022/07/20 01:25:43;;;;;;;9.90;5.97;;;15.30;99.90;;;;;;4997232;28;20121;-69
2022/07/20 01:28:11;;;;;;;9.23;6.07;;;15.30;99.90;;;;;;4997277;28;20105;-69
2022/07/20 01:30:37;;;;;;;12.57;6.07;;;15.30;99.90;;;;;;4996738;28;20367;-69
2022/07/20 01:33:03;;;;;;;8.40;5.60;;;15.30;99.90;;;;;;4996632;28;20023;-69
2022/07/20 01:35:28;;;;;;;8.50;5.25;;;15.30;99.90;;;;;;4996971;28;20022;-68
2022/07/20 01:37:54;;;;;;;9.70;5.90;;;15.20;99.90;;;;;;4996894;28;20022;-67
2022/07/20 01:40:20;;;;;;;10.68;5.82;;;15.10;99.90;;;;;;4996582;28;20493;-67
2022/07/20 01:42:45;;;;;;;9.00;5.68;;;15.10;99.90;;;;;;4996525;28;20497;-66
2022/07/20 01:45:11;;;;;;;8.18;6.00;;;15.00;99.90;;;;;;4997058;28;20160;-66
2022/07/20 01:47:36;;;;;;;8.05;5.63;;;15.00;99.90;;;;;;4996417;28;20078;-67
2022/07/20 01:50:02;;;;;;;11.77;6.47;;;15.00;99.90;;;;;;4996152;28;20445;-67
2022/07/20 01:52:28;;;;;;;9.35;6.28;;;15.00;99.90;;;;;;4996114;28;20034;-67
2022/07/20 01:54:54;;;;;;;18.70;6.55;;;15.00;99.90;;;;;;4996308;28;20386;-67
2022/07/20 01:57:20;;;;;;;9.60;6.60;;;15.00;99.90;;;;;;4996275;28;20364;-67
2022/07/20 01:59:45;;;;;;;12.55;6.95;;;15.00;99.90;;;;;;4996214;28;20443;-67
2022/07/20 02:02:11;;;;;;;10.20;6.28;;;15.10;99.90;;;;;;4996101;28;20036;-67
2022/07/20 02:04:37;;;;;;;9.73;6.82;;;15.00;99.90;;;;;;4996674;28;20169;-66
2022/07/20 02:07:02;;;;;;;10.80;6.55;;;15.00;99.90;;;;;;4996106;28;20026;-66
2022/07/20 02:09:28;;;;;;;10.02;6.78;;;14.90;99.90;;;;;;4996266;28;20478;-66
2022/07/20 02:11:54;;;;;;;16.10;6.80;;;15.10;99.90;;;;;;4995937;28;20037;-67
2022/07/20 02:14:19;;;;;;;9.82;6.60;;;15.20;99.90;;;;;;4995783;28;20030;-67
2022/07/20 02:16:45;;;;;;;16.58;6.45;;;15.20;99.90;;;;;;4996111;28;20022;-67
2022/07/20 02:19:10;;;;;;;13.27;6.50;;;15.20;99.90;;;;;;4995909;28;20026;-67
2022/07/20 02:21:36;;;;;;;12.18;7.28;;;15.30;99.90;;;;;;4996038;28;20474;-67
2022/07/20 02:24:02;;;;;;;14.27;6.75;;;15.40;99.90;;;;;;4995776;28;20542;-66
2022/07/20 02:26:28;;;;;;;11.93;6.82;;;15.50;99.90;;;;;;4994711;28;20035;-67
2022/07/20 02:28:53;;;;;;;12.07;7.35;;;15.70;99.90;;;;;;4995444;28;20041;-67
2022/07/20 02:31:19;;;;;;;8.75;6.30;;;15.80;99.90;;;;;;4995562;28;20105;-67
2022/07/20 02:33:45;;;;;;;11.82;6.97;;;15.90;99.90;;;;;;4995419;28;20026;-67
2022/07/20 02:36:11;;;;;;;13.93;6.30;;;16.00;99.90;;;;;;4995690;28;20530;-67
2022/07/20 02:38:37;;;;;;;20.15;7.35;;;16.20;99.90;;;;;;4995498;28;20065;-67
2022/07/20 02:41:03;;;;;;;17.42;5.78;;;16.20;99.90;;;;;;4995914;28;20034;-67
2022/07/20 02:43:28;;;;;;;10.02;6.25;;;16.30;99.90;;;;;;4995323;28;20033;-67
2022/07/20 02:45:54;;;;;;;10.13;6.20;;;16.40;99.90;;;;;;4995526;28;20027;-67
2022/07/20 02:48:20;;;;;;;11.77;6.28;;;16.40;99.90;;;;;;4995292;28;20027;-67
2022/07/20 02:50:45;;;;;;;8.98;6.60;;;16.50;99.90;;;;;;4995515;28;20065;-67
2022/07/20 02:53:12;;;;;;;8.75;5.93;;;16.50;99.90;;;;;;4995049;28;20038;-66
2022/07/20 02:55:39;;;;;;;9.45;6.05;;;16.60;99.90;;;;;;4995712;28;20030;-66
2022/07/20 02:58:05;;;;;;;13.15;7.07;;;16.70;99.90;;;;;;4995172;28;20030;-66
2022/07/20 03:00:32;;;;;;;18.13;6.13;;;16.70;99.90;;;;;;4995070;28;20026;-66
2022/07/20 03:02:57;;;;;;;10.70;6.32;;;16.70;99.90;;;;;;4995072;28;20030;-66
2022/07/20 03:05:23;;;;;;;9.88;6.15;;;16.70;99.90;;;;;;4995022;28;20389;-66
2022/07/20 03:07:49;;;;;;;10.75;6.65;;;16.80;99.90;;;;;;4994904;28;20470;-66
2022/07/20 03:10:15;;;;;;;12.07;6.72;;;17.00;99.90;;;;;;4994820;28;20101;-67
2022/07/20 03:12:41;;;;;;;10.52;6.60;;;17.10;99.90;;;;;;4994822;28;20042;-67
2022/07/20 03:15:07;;;;;;;14.82;7.13;;;17.20;99.90;;;;;;4995040;28;20491;-67
2022/07/20 03:17:50;;;;;;;15.32;6.60;;;17.30;99.90;;;;;;4995029;28;20026;-66
2022/07/20 03:20:24;;;;;;;13.55;6.65;;;17.40;99.90;;;;;;4995083;28;20026;-66
2022/07/20 03:22:51;;;;;;;9.15;6.43;;;17.60;99.90;;;;;;4994680;28;20425;-66
2022/07/20 03:25:17;;;;;;;10.40;6.32;;;17.70;99.90;;;;;;4994411;28;20049;-67
2022/07/20 03:27:43;;;;;;;11.45;6.85;;;17.90;99.90;;;;;;4994584;28;20534;-66
2022/07/20 03:30:09;;;;;;;9.13;6.05;;;17.90;99.90;;;;;;4994567;28;20030;-66
2022/07/20 03:32:35;;;;;;;15.85;6.38;;;17.90;99.90;;;;;;4994499;28;20066;-66
2022/07/20 03:35:01;;;;;;;10.23;7.25;;;18.00;99.90;;;;;;4994513;28;20026;-66
2022/07/20 03:37:27;;;;;;;12.23;6.68;;;18.00;99.90;;;;;;4994193;28;20030;-67
2022/07/20 03:39:52;;;;;;;14.48;6.25;;;18.10;99.90;;;;;;4994514;28;20106;-67
2022/07/20 03:42:18;;;;;;;10.25;6.75;;;18.00;99.90;;;;;;4994276;28;20057;-67
2022/07/20 03:44:44;;;;;;;8.50;6.10;;;18.10;99.90;;;;;;4994346;28;20430;-67
2022/07/20 03:47:10;;;;;;;10.15;6.40;;;18.10;99.90;;;;;;4994181;28;20030;-67
2022/07/20 03:49:36;;;;;;;11.30;6.75;;;18.20;99.90;;;;;;4994169;28;20057;-67
2022/07/20 03:52:02;;;;;;;9.25;6.45;;;18.20;99.90;;;;;;4994170;28;20483;-67
2022/07/20 03:54:27;;;;;;;11.23;6.43;;;18.20;99.90;;;;;;4994207;28;20386;-67
2022/07/20 03:56:53;;;;;;;14.23;6.03;;;18.20;99.90;;;;;;4994403;28;20030;-67
2022/07/20 03:59:19;;;;;;;16.08;6.63;;;18.20;99.90;;;;;;4994180;28;20169;-67
2022/07/20 04:01:44;;;;;;;10.30;6.45;;;18.20;99.90;;;;;;4994210;28;20023;-67
2022/07/20 04:04:10;;;;;;;13.55;6.82;;;18.30;99.90;;;;;;4994075;28;20489;-67
2022/07/20 04:06:36;;;;;;;10.88;6.97;;;18.20;99.90;;;;;;4994067;28;20031;-66
2022/07/20 04:09:03;;;;;;;19.60;6.35;;;18.30;99.90;;;;;;4993968;28;20184;-66
2022/07/20 04:11:29;;;;;;;11.18;6.57;;;18.30;99.90;;;;;;4993705;28;20035;-67
2022/07/20 04:13:55;;;;;;;12.98;6.25;;;18.20;99.90;;;;;;4994031;28;20029;-67
2022/07/20 04:16:21;;;;;;;10.68;6.43;;;18.20;99.90;;;;;;4994522;28;20403;-67
2022/07/20 04:18:47;;;;;;;14.30;6.53;;;18.30;99.90;;;;;;4993898;28;20034;-67
2022/07/20 04:21:13;;;;;;;14.32;6.80;;;18.40;99.90;;;;;;4993863;28;20034;-66
2022/07/20 04:23:38;;;;;;;15.38;6.82;;;18.40;99.90;;;;;;4994148;28;20023;-66
2022/07/20 04:26:04;;;;;;;19.60;7.18;;;18.40;99.90;;;;;;4994146;28;20367;-67
2022/07/20 04:28:30;;;;;;;19.40;6.78;;;18.40;99.90;;;;;;4993678;28;20033;-67
2022/07/20 04:30:55;;;;;;;11.90;6.65;;;18.50;99.90;;;;;;4993817;28;20517;-66
2022/07/20 04:33:21;;;;;;;12.95;6.63;;;18.50;99.90;;;;;;4993693;28;20022;-67
2022/07/20 04:35:47;;;;;;;9.82;6.75;;;18.60;99.90;;;;;;4993873;28;20054;-71
2022/07/20 04:38:13;;;;;;;10.85;5.75;;;18.70;99.90;;;;;;4994118;28;20034;-71
2022/07/20 04:40:39;;;;;;;9.73;6.43;;;18.60;99.90;;;;;;4993688;28;20029;-71
2022/07/20 04:43:05;;;;;;;11.13;7.20;;;18.70;99.90;;;;;;4993378;28;20034;-71
2022/07/20 04:45:31;;;;;;;9.57;5.85;;;18.60;99.90;;;;;;4993753;28;20161;-71
2022/07/20 04:47:56;;;;;;;10.50;6.45;;;18.70;99.90;;;;;;4993708;28;20363;-71
2022/07/20 04:50:22;;;;;;;14.80;6.25;;;18.80;99.90;;;;;;4995032;28;20033;-71
2022/07/20 04:52:48;;;;;;;15.57;6.50;;;18.80;99.90;;;;;;4997587;28;20022;-71
2022/07/20 04:55:13;;;;;;;12.15;6.55;;;18.90;99.90;;;;;;4997454;28;20066;-71
2022/07/20 04:57:39;;;;;;;13.60;6.85;;;19.00;99.90;;;;;;4997538;28;20390;-71
2022/07/20 05:00:06;;;;;;;7.95;6.18;;;19.10;99.90;;;;;;4997414;28;20054;-71
2022/07/20 05:02:32;;;;;;;8.68;6.72;;;19.20;99.90;;;;;;4997321;28;20042;-71
2022/07/20 05:04:57;;;;;;;13.40;6.32;;;19.20;99.90;;;;;;4997424;28;20026;-71
2022/07/20 05:07:23;;;;;;;16.10;7.38;;;19.30;99.90;;;;;;4997312;28;20077;-71
2022/07/20 05:09:49;;;;;;;15.75;7.13;;;19.40;99.90;;;;;;4997207;28;20026;-71
2022/07/20 05:12:15;;;;;;;9.35;6.18;;;19.50;99.90;;;;;;4997018;28;20517;-71
2022/07/20 05:14:40;;;;;;;10.18;6.70;;;19.60;99.90;;;;;;4997223;28;20018;-71
2022/07/20 05:17:06;;;;;;;10.13;6.50;;;19.70;99.90;;;;;;4997580;28;20418;-72
2022/07/20 05:19:31;;;;;;;15.32;6.03;;;19.80;99.90;;;;;;4997408;28;20619;-72
2022/07/20 05:21:57;;;;;;;10.50;6.10;;;19.90;99.90;;;;;;4997330;28;20030;-72
2022/07/20 05:24:23;;;;;;;14.02;7.28;;;20.10;99.90;;;;;;4997361;28;20105;-72
2022/07/20 05:26:49;;;;;;;12.00;7.03;;;20.20;99.90;;;;;;4997246;28;20394;-71
2022/07/20 05:29:14;;;;;;;24.90;6.85;;;20.20;99.90;;;;;;4997126;28;20025;-72
2022/07/20 05:31:40;;;;;;;8.55;6.00;;;20.40;99.90;;;;;;4996977;28;20546;-72
2022/07/20 05:34:06;;;;;;;9.98;6.75;;;20.50;99.90;;;;;;4997922;28;20030;-72
2022/07/20 05:36:31;;;;;;;10.90;7.05;;;20.60;99.90;;;;;;4996928;28;20053;-72
2022/07/20 05:38:57;;;;;;;7.95;5.85;;;20.70;99.90;;;;;;4996775;28;20049;-71
2022/07/20 05:41:22;;;;;;;10.93;6.00;;;20.80;99.90;;;;;;4996615;28;20084;-71
2022/07/20 05:43:48;;;;;;;10.93;5.35;;;20.90;99.90;;;;;;4996555;28;20062;-72
2022/07/20 05:46:13;;;;;;;7.45;5.55;;;21.10;99.90;;;;;;4996892;28;20032;-71
2022/07/20 05:48:39;;;;;;;18.90;6.40;;;21.10;99.90;;;;;;4996414;28;20034;-72
2022/07/20 05:51:05;;;;;;;10.75;5.88;;;21.20;99.90;;;;;;4996783;28;20026;-72
2022/07/20 05:53:30;;;;;;;10.52;6.47;;;21.30;99.90;;;;;;4996430;28;20034;-72
2022/07/20 05:55:56;;;;;;;16.55;6.80;;;21.50;99.90;;;;;;4996479;28;20029;-72
2022/07/20 05:58:21;;;;;;;12.50;6.47;;;21.60;99.90;;;;;;4996748;28;20038;-72
2022/07/20 06:00:47;;;;;;;9.50;5.82;;;21.70;99.90;;;;;;4996397;28;20076;-72
2022/07/20 06:03:12;;;;;;;21.63;6.22;;;21.80;99.90;;;;;;4996260;28;20394;-72
2022/07/20 06:05:38;;;;;;;15.13;6.70;;;21.90;99.90;;;;;;4996538;28;20029;-72
2022/07/20 06:08:04;;;;;;;10.10;6.07;;;22.10;99.90;;;;;;4996100;28;20038;-72
2022/07/20 06:10:32;;;;;;;13.73;5.95;;;22.20;99.90;;;;;;4995947;28;20030;-72
2022/07/20 06:12:59;;;;;;;18.50;6.07;;;22.40;99.90;;;;;;4995892;28;20030;-71
2022/07/20 06:15:25;;;;;;;10.00;5.57;;;22.50;99.90;;;;;;4996320;28;20471;-71
2022/07/20 06:17:51;;;;;;;8.25;6.00;;;22.60;99.90;;;;;;4996011;28;20095;-71
2022/07/20 06:20:17;;;;;;;9.50;5.70;;;22.70;99.90;;;;;;4996012;28;20463;-72
2022/07/20 06:22:43;;;;;;;11.10;6.05;;;22.90;99.90;;;;;;4995842;28;20037;-72
2022/07/20 06:25:10;;;;;;;11.80;6.20;;;23.00;99.90;;;;;;4996153;28;20057;-72
2022/07/20 06:27:36;;;;;;;12.02;5.82;;;23.10;99.90;;;;;;4995749;28;20073;-72
2022/07/20 06:30:04;;;;;;;14.95;6.82;;;23.10;99.90;;;;;;4996051;28;20045;-72
2022/07/20 06:32:31;;;;;;;9.85;6.07;;;23.40;99.90;;;;;;4996204;28;20053;-72
2022/07/20 06:34:56;;;;;;;11.65;6.82;;;23.50;99.90;;;;;;4995569;28;20028;-71
2022/07/20 06:37:22;;;;;;;8.45;6.00;;;23.70;99.90;;;;;;4995881;28;20034;-71
2022/07/20 06:39:48;;;;;;;9.73;5.95;;;23.80;99.90;;;;;;4995591;28;20097;-71
2022/07/20 06:42:17;;;;;;;11.75;6.13;;;24.00;99.90;;;;;;4995561;28;20537;-71
2022/07/20 06:44:43;;;;;;;18.92;6.05;;;24.10;99.90;;;;;;4995560;28;20034;-71
2022/07/20 06:47:08;;;;;;;14.07;5.57;;;24.30;99.90;;;;;;4995456;28;20069;-71
2022/07/20 06:49:34;;;;;;;8.65;5.25;;;24.40;99.90;;;;;;4995251;28;20026;-71
2022/07/20 06:52:00;;;;;;;15.38;6.15;;;24.60;99.90;;;;;;4995291;28;20390;-71
2022/07/20 06:54:26;;;;;;;9.27;5.30;;;24.80;99.90;;;;;;4995281;28;20025;-71
2022/07/20 06:56:52;;;;;;;8.32;5.10;;;24.90;99.90;;;;;;4995330;28;20030;-71
2022/07/20 06:59:17;;;;;;;10.10;6.50;;;25.10;99.90;;;;;;4995435;28;20038;-71
2022/07/20 07:01:43;;;;;;;11.95;6.07;;;25.30;99.90;;;;;;4995378;28;20041;-71
2022/07/20 07:04:08;;;;;;;9.80;5.13;;;25.50;99.90;;;;;;4995161;28;20029;-71
2022/07/20 07:06:34;;;;;;;9.07;5.28;;;25.60;99.90;;;;;;4995029;28;20069;-71
2022/07/20 07:09:00;;;;;;;10.82;5.80;;;25.50;99.90;;;;;;4995203;28;20034;-71
2022/07/20 07:11:35;;;;;;;9.13;5.45;;;25.40;99.90;;;;;;5037420;23;20034;-69
2022/07/20 07:14:02;;;;;;;8.68;5.25;;;25.40;99.90;;;;;;5033756;28;20030;-70
2022/07/20 07:16:28;;;;;;;9.60;5.47;;;25.50;99.90;;;;;;5034694;28;20495;-70
2022/07/20 07:18:53;;;;;;;7.97;5.72;;;25.70;99.90;;;;;;5034589;28;20037;-70
2022/07/20 07:21:19;;;;;;;10.70;5.97;;;26.00;99.90;;;;;;5034598;28;20026;-70
2022/07/20 07:23:49;;;;;;;9.73;5.45;;;26.20;99.90;;;;;;5054197;28;20032;-70
2022/07/20 07:26:19;;;;;;;10.93;4.88;;;26.50;99.90;;;;;;5055021;28;20063;-70
2022/07/20 07:28:45;;;;;;;9.70;5.40;;;26.70;99.90;;;;;;5054539;28;20017;-70
2022/07/20 07:31:11;;;;;;;10.73;5.57;;;26.70;99.90;;;;;;5054536;28;20017;-70
2022/07/20 07:33:37;;;;;;;8.82;4.43;;;26.80;99.90;;;;;;5054473;28;20021;-70
2022/07/20 07:36:04;;;;;;;11.30;5.57;;;26.90;99.90;;;;;;5054173;28;20104;-69
2022/07/20 07:38:30;;;;;;;18.38;5.13;;;27.00;99.90;;;;;;5053684;28;20473;-70
2022/07/20 07:40:55;;;;;;;13.80;6.30;;;27.20;99.90;;;;;;5054003;28;20039;-70
2022/07/20 07:43:21;;;;;;;11.20;5.60;;;27.30;99.90;;;;;;5053497;28;20047;-69
2022/07/20 07:45:46;;;;;;;8.10;4.95;;;27.40;99.90;;;;;;5053674;28;20393;-69
2022/07/20 07:48:12;;;;;;;12.10;5.13;;;27.50;99.90;;;;;;5053528;28;20060;-69
2022/07/20 07:50:38;;;;;;;10.40;5.30;;;27.60;99.90;;;;;;5052370;28;20029;-69
2022/07/20 07:53:07;;;;;;;10.32;5.38;;;27.70;99.90;;;;;;5053504;28;20032;-69
2022/07/20 07:55:39;;;;;;;11.30;5.75;;;27.80;99.90;;;;;;5053540;28;20554;-69
2022/07/20 07:58:06;;;;;;;6.53;5.00;;;28.00;99.90;;;;;;5053479;28;20037;-69
2022/07/20 08:00:33;;;;;;;9.48;5.60;;;28.20;99.90;;;;;;5053507;28;20029;-68
2022/07/20 08:02:59;;;;;;;6.80;4.40;;;28.30;99.90;;;;;;5053397;28;20021;-69
2022/07/20 08:05:24;;;;;;;7.15;4.80;;;28.40;99.90;;;;;;5053761;28;20461;-68
2022/07/20 08:07:50;;;;;;;18.55;5.65;;;28.60;99.90;;;;;;5053347;28;20021;-69
2022/07/20 08:10:16;;;;;;;11.25;4.82;;;28.70;99.90;;;;;;5053600;28;20026;-69
2022/07/20 08:12:43;;;;;;;9.23;4.78;;;28.80;99.90;;;;;;5053147;28;20041;-69
2022/07/20 08:15:10;;;;;;;12.18;5.15;;;28.80;99.90;;;;;;5053581;28;20021;-69
2022/07/20 08:17:35;;;;;;;6.68;4.85;;;29.00;99.90;;;;;;5053334;28;20021;-69
2022/07/20 08:20:02;;;;;;;7.93;4.65;;;29.20;99.90;;;;;;5053261;28;20104;-69
2022/07/20 08:22:27;;;;;;;11.68;5.45;;;29.20;99.90;;;;;;5053221;28;20040;-69
2022/07/20 08:24:53;;;;;;;15.30;5.22;;;29.30;99.90;;;;;;5054061;28;20025;-69
2022/07/20 08:27:18;;;;;;;9.27;4.28;;;29.40;99.90;;;;;;5057409;28;20381;-70
2022/07/20 08:29:45;;;;;;;10.80;4.00;;;29.50;99.90;;;;;;5057228;28;20099;-69
2022/07/20 08:32:11;;;;;;;6.97;4.50;;;29.60;99.90;;;;;;5057237;28;20017;-69
2022/07/20 08:34:36;;;;;;;11.57;4.95;;;29.80;99.90;;;;;;5057303;28;20021;-69
2022/07/20 08:37:02;;;;;;;7.88;5.28;;;30.10;99.90;;;;;;5057070;28;20025;-69
2022/07/20 08:39:27;;;;;;;11.82;4.70;;;30.20;99.90;;;;;;5057262;28;20131;-69
2022/07/20 08:41:53;;;;;;;10.48;5.13;;;30.30;99.90;;;;;;5057722;28;20044;-69
2022/07/20 08:44:19;;;;;;;14.05;4.60;;;30.50;99.90;;;;;;5057097;28;20029;-69
2022/07/20 08:46:44;;;;;;;11.85;5.00;;;30.60;99.90;;;;;;5057039;28;20029;-69
2022/07/20 08:49:12;;;;;;;6.07;4.13;;;30.60;99.90;;;;;;5056847;28;20025;-68
2022/07/20 08:51:38;;;;;;;11.35;4.35;;;30.60;99.90;;;;;;5056859;28;20021;-69
2022/07/20 08:54:05;;;;;;;10.63;3.85;;;30.70;99.90;;;;;;5056948;28;20021;-69
2022/07/20 08:56:30;;;;;;;7.05;4.75;;;31.00;99.90;;;;;;5056902;28;20036;-69
2022/07/20 08:58:56;;;;;;;15.25;4.18;;;31.10;99.90;;;;;;5056990;28;20025;-68
2022/07/20 09:01:21;;;;;;;7.03;4.20;;;31.20;99.90;;;;;;5056735;28;20111;-69
2022/07/20 09:04:11;;;;;;;10.02;3.78;;;31.30;99.90;;;;;;5056977;28;20049;-69
2022/07/20 09:06:47;;;;;;;15.18;4.70;;;31.50;99.90;;;;;;5056704;28;20025;-69
2022/07/20 09:09:14;;;;;;;11.73;4.15;;;31.70;99.90;;;;;;5056816;28;20108;-69
2022/07/20 09:11:39;;;;;;;8.07;4.30;;;31.90;99.90;;;;;;5056532;28;20013;-68
2022/07/20 09:14:05;;;;;;;17.85;4.68;;;31.80;99.90;;;;;;5056592;28;20032;-69
2022/07/20 09:16:40;;;;;;;9.75;4.10;;;31.80;99.90;;;;;;5056826;28;20075;-69
2022/07/20 09:19:06;;;;;;;11.05;4.60;;;31.90;99.90;;;;;;5056560;28;20387;-69
2022/07/20 09:21:32;;;;;;;5.72;4.10;;;32.00;99.90;;;;;;5056303;28;20025;-69
2022/07/20 09:24:02;;;;;;;10.65;3.25;;;32.20;99.90;;;;;;5056632;28;20021;-69
2022/07/20 09:26:28;;;;;;;11.82;3.92;;;32.30;99.90;;;;;;5056444;28;20116;-69
2022/07/20 09:28:56;;;;;;;11.63;4.15;;;32.30;99.90;;;;;;5056554;28;20472;-69
2022/07/20 09:31:26;;;;;;;9.55;4.78;;;32.30;99.90;;;;;;5056234;28;20021;-68
2022/07/20 09:33:54;;;;;;;9.25;4.30;;;32.30;99.90;;;;;;5056306;28;20017;-69
2022/07/20 09:36:21;;;;;;;11.35;3.70;;;32.20;99.90;;;;;;5055553;28;20032;-68
2022/07/20 09:38:47;;;;;;;6.55;3.78;;;32.30;99.90;;;;;;5056117;28;20052;-69
2022/07/20 09:41:23;;;;;;;11.48;3.90;;;32.50;99.90;;;;;;5056154;28;20397;-69
2022/07/20 09:43:49;;;;;;;21.02;4.53;;;32.80;99.90;;;;;;5056369;28;20029;-69
2022/07/20 09:46:16;;;;;;;14.45;4.10;;;33.10;99.90;;;;;;5056080;28;20358;-69
2022/07/20 09:49:03;;;;;;;7.65;4.25;;;33.40;99.90;;;;;;5056149;28;20472;-69
2022/07/20 09:51:29;;;;;;;9.98;4.18;;;33.30;99.90;;;;;;5055911;28;20013;-69
2022/07/20 09:54:04;;;;;;;7.97;3.42;;;33.40;99.90;;;;;;5055873;28;20025;-69
2022/07/20 09:56:31;;;;;;;19.55;3.92;;;33.60;99.90;;;;;;5056073;28;20108;-69
2022/07/20 09:58:59;;;;;;;8.90;4.00;;;33.90;99.90;;;;;;5055574;28;20021;-69
2022/07/20 10:01:28;;;;;;;13.80;4.38;;;33.80;99.90;;;;;;5055420;28;20033;-69
2022/07/20 10:03:55;;;;;;;6.80;3.60;;;33.70;99.90;;;;;;5055877;28;20021;-69
2022/07/20 10:06:22;;;;;;;5.93;3.65;;;33.80;99.90;;;;;;5055464;28;20104;-68
2022/07/20 10:08:49;;;;;;;8.38;4.18;;;33.90;99.90;;;;;;5055234;28;20429;-69
2022/07/20 10:11:17;;;;;;;12.25;3.92;;;34.00;99.90;;;;;;5055593;28;20082;-69
2022/07/20 10:13:43;;;;;;;14.00;4.13;;;34.10;99.90;;;;;;5055211;28;20032;-69
2022/07/20 10:16:24;;;;;;;12.18;4.22;;;34.20;99.90;;;;;;5056178;28;20365;-70
2022/07/20 10:18:51;;;;;;;7.60;3.78;;;34.40;99.90;;;;;;5055302;28;20020;-69
2022/07/20 10:21:31;;;;;;;15.77;4.85;;;34.20;99.90;;;;;;5055481;28;20056;-69
2022/07/20 10:24:18;;;;;;;16.23;4.43;;;34.30;99.90;;;;;;5055184;28;20028;-69
2022/07/20 10:26:45;;;;;;;6.90;4.00;;;34.30;99.90;;;;;;5055202;28;20025;-69
2022/07/20 10:29:24;;;;;;;5.07;3.75;;;34.40;99.90;;;;;;5055074;28;20060;-69
2022/07/20 10:31:50;;;;;;;9.55;3.85;;;34.70;99.90;;;;;;5055624;28;20017;-69
2022/07/20 10:34:33;;;;;;;14.32;4.38;;;34.80;99.90;;;;;;5054996;28;20389;-69
2022/07/20 10:37:21;;;;;;;7.78;3.70;;;34.80;99.90;;;;;;5053945;28;20029;-68
2022/07/20 10:39:47;;;;;;;11.35;3.53;;;34.90;99.90;;;;;;5042165;28;20508;-68
2022/07/20 10:42:23;;;;;;;8.18;4.55;;;35.00;99.90;;;;;;5044246;28;20033;-69
2022/07/20 10:44:49;;;;;;;14.85;3.78;;;35.20;99.90;;;;;;5050542;28;20064;-69
2022/07/20 10:47:51;;;;;;;13.02;3.80;;;35.30;99.50;;;;;;5044686;28;20025;-68
2022/07/20 10:50:31;;;;;;;13.10;3.25;;;35.20;97.80;;;;;;5007310;28;20044;-68
2022/07/20 10:53:18;;;;;;;9.13;3.75;;;35.10;98.60;;;;;;5048551;28;20026;-68
2022/07/20 10:56:03;;;;;;;6.57;3.45;;;35.20;99.10;;;;;;5045962;28;20515;-68
2022/07/20 10:58:31;;;;;;;13.27;4.25;;;35.30;99.50;;;;;;5050601;28;20037;-68
2022/07/20 11:01:01;;;;;;;11.57;3.70;;;35.40;96.90;;;;;;5049598;28;20013;-69
2022/07/20 11:03:41;;;;;;;11.52;3.42;;;35.60;96.00;;;;;;5053573;28;20025;-68
2022/07/20 11:06:13;;;;;;;7.53;3.60;;;35.60;97.50;;;;;;5053536;28;20500;-68
2022/07/20 11:08:48;;;;;;;8.57;3.70;;;35.70;99.90;;;;;;5053909;28;20060;-68
2022/07/20 11:11:22;;;;;;;5.68;3.15;;;35.80;97.80;;;;;;5054413;28;20029;-68
2022/07/20 11:13:48;;;;;;;5.88;3.70;;;35.90;96.70;;;;;;5053947;28;20374;-68
2022/07/20 11:16:18;;;;;;;6.55;3.45;;;36.10;97.30;;;;;;5053905;28;20028;-68
2022/07/20 11:18:43;;;;;;;16.20;4.10;;;36.40;98.30;;;;;;5053901;28;20507;-68
2022/07/20 11:21:11;;;;;;;8.32;3.65;;;36.50;97.20;;;;;;5054086;28;20029;-68
2022/07/20 11:23:49;;;;;;;7.47;3.65;;;36.60;95.40;;;;;;5053830;28;20053;-68
2022/07/20 11:26:17;;;;;;;13.02;3.75;;;36.80;97.20;;;;;;5053828;28;20025;-68
2022/07/20 11:28:51;;;;;;;12.70;3.58;;;36.90;97.50;;;;;;5053869;28;20025;-68
2022/07/20 11:31:20;;;;;;;8.40;3.50;;;37.00;96.10;;;;;;5043825;28;20025;-68
2022/07/20 11:33:49;;;;;;;12.18;4.03;;;37.10;95.60;;;;;;5053010;28;20033;-68
2022/07/20 11:36:24;;;;;;;16.52;3.65;;;37.30;96.40;;;;;;5053143;28;20021;-68
2022/07/20 11:38:53;;;;;;;5.85;2.90;;;37.20;93.90;;;;;;5054008;28;20029;-68
2022/07/20 11:41:21;;;;;;;9.30;3.67;;;37.20;93.90;;;;;;5053966;28;20377;-68
2022/07/20 11:43:51;;;;;;;11.95;3.63;;;37.00;94.60;;;;;;5046580;28;20480;-68
2022/07/20 11:46:22;;;;;;;7.78;3.65;;;37.10;94.90;;;;;;5053931;28;20032;-67
2022/07/20 11:49:03;;;;;;;6.93;3.95;;;37.10;93.60;;;;;;5053926;28;20029;-67
2022/07/20 11:51:30;;;;;;;7.18;3.53;;;37.00;93.20;;;;;;5053500;28;20052;-68
2022/07/20 11:53:56;;;;;;;10.88;3.92;;;36.80;93.90;;;;;;5053532;28;20025;-68
2022/07/20 11:56:24;;;;;;;15.48;3.50;;;37.10;96.10;;;;;;5053504;28;20096;-68
2022/07/20 11:58:52;;;;;;;5.20;2.67;;;37.20;93.50;;;;;;5053842;28;20033;-67
2022/07/20 12:01:23;;;;;;;15.32;3.10;;;37.10;93.90;;;;;;5053521;28;20372;-68
2022/07/20 12:03:52;;;;;;;8.25;3.38;;;37.40;93.30;;;;;;5053516;28;20021;-68
2022/07/20 12:06:18;;;;;;;19.63;3.65;;;37.60;93.40;;;;;;5053533;28;20036;-68
2022/07/20 12:08:44;;;;;;;9.10;3.25;;;38.00;91.70;;;;;;5053758;28;20082;-68
2022/07/20 12:11:11;;;;;;;10.93;3.22;;;38.00;91.60;;;;;;5053463;28;20021;-68
2022/07/20 12:13:50;;;;;;;13.55;3.25;;;38.40;93.60;;;;;;5052977;28;20035;-68
2022/07/20 12:16:18;;;;;;;5.65;3.35;;;38.50;92.30;;;;;;5053458;28;20458;-68
2022/07/20 12:18:45;;;;;;;11.35;4.35;;;38.70;90.50;;;;;;5053178;28;20060;-68
2022/07/20 12:21:20;;;;;;;15.63;4.50;;;38.80;91.40;;;;;;5053232;28;20045;-68
2022/07/20 12:23:49;;;;;;;18.15;3.83;;;39.20;91.70;;;;;;5053246;28;20025;-68
2022/07/20 12:26:33;;;;;;;11.48;3.35;;;39.50;90.80;;;;;;5053683;28;20090;-68
2022/07/20 12:29:26;;;;;;;9.38;3.55;;;39.70;88.20;;;;;;5053061;28;20025;-68
2022/07/20 12:32:04;;;;;;;10.02;3.55;;;39.70;86.30;;;;;;5053254;28;20028;-68
2022/07/20 12:34:34;;;;;;;15.68;3.47;;;39.80;85.70;;;;;;5052919;28;20481;-68
2022/07/20 12:36:59;;;;;;;5.95;3.15;;;39.90;85.40;;;;;;5053301;28;20440;-68
2022/07/20 12:39:49;;;;;;;10.48;3.05;;;40.00;82.90;;;;;;5053046;28;20033;-68
2022/07/20 12:42:24;;;;;;;6.32;3.50;;;40.10;82.20;;;;;;5053213;28;20037;-68
2022/07/20 12:45:02;;;;;;;11.80;3.08;;;40.10;83.70;;;;;;5053322;28;20108;-68
2022/07/20 12:47:28;;;;;;;12.02;3.17;;;39.40;81.90;;;;;;5053135;28;20063;-68
2022/07/20 12:49:54;;;;;;;13.40;3.00;;;38.90;84.00;;;;;;5053171;28;20067;-68